createdAt,value
2019-06-08T00:00:33.598Z,19.71
2019-06-08T00:05:36.955Z,19.31
2019-06-08T00:10:40.073Z,18.76
2019-06-08T00:15:43.279Z,18.78
2019-06-08T00:20:46.434Z,18.99
2019-06-08T00:25:49.540Z,19.09
2019-06-08T00:30:52.994Z,19.26
2019-06-08T00:35:56.145Z,19.08
2019-06-08T00:41:00.537Z,19.13
2019-06-08T00:46:05.061Z,18.57
2019-06-08T00:51:08.877Z,18.57
2019-06-08T00:56:11.958Z,18.81
2019-06-08T01:01:15.462Z,18.76
2019-06-08T01:06:21.025Z,18.58
2019-06-08T01:11:24.794Z,18.18
2019-06-08T01:16:29.254Z,18.42
2019-06-08T01:21:34.470Z,18.58
2019-06-08T01:26:37.568Z,18.62
2019-06-08T01:31:42.136Z,18.62
2019-06-08T01:36:45.514Z,18.34
2019-06-08T01:41:52.235Z,18.34
2019-06-08T01:46:58.037Z,17.81
2019-06-08T01:52:02.281Z,17.51
2019-06-08T01:57:05.452Z,17.62
2019-06-08T02:02:08.607Z,17.67
2019-06-08T02:07:13.082Z,17.64
2019-06-08T02:12:16.375Z,17.53
2019-06-08T02:17:19.487Z,17.52
2019-06-08T02:22:22.640Z,17.68
2019-06-08T02:27:27.196Z,17.34
2019-06-08T02:32:31.578Z,17.26
2019-06-08T02:37:37.737Z,17.45
2019-06-08T02:42:40.554Z,17.82
2019-06-08T02:47:43.658Z,18.03
2019-06-08T02:52:50.388Z,18.02
2019-06-08T02:57:54.141Z,17.94
2019-06-08T03:03:01.219Z,18.07
2019-06-08T03:08:06.697Z,17.91
2019-06-08T03:13:10.480Z,17.58
2019-06-08T03:18:13.488Z,17.37
2019-06-08T03:23:17.666Z,17.36
2019-06-08T03:28:21.062Z,17.48
2019-06-08T03:33:24.386Z,17.70
2019-06-08T03:38:27.633Z,17.86
2019-06-08T03:43:30.775Z,17.99
2019-06-08T03:48:35.016Z,18.19
2019-06-08T03:53:42.022Z,17.96
2019-06-08T03:58:47.979Z,18.08
2019-06-08T04:03:50.440Z,18.38
2019-06-08T04:08:53.625Z,18.58
2019-06-08T04:13:57.975Z,18.73
2019-06-08T04:19:01.207Z,19.02
2019-06-08T04:24:04.348Z,19.20
2019-06-08T04:29:07.380Z,19.38
2019-06-08T04:34:11.757Z,19.54
2019-06-08T04:39:14.928Z,19.71
2019-06-08T04:44:19.374Z,19.90
2019-06-08T04:49:25.132Z,20.17
2019-06-08T04:54:30.076Z,20.19
2019-06-08T04:59:33.126Z,20.16
2019-06-08T05:04:36.253Z,20.51
2019-06-08T05:09:40.991Z,20.98
2019-06-08T05:14:45.480Z,21.22
2019-06-08T05:19:50.517Z,21.18
2019-06-08T05:24:53.952Z,21.37
2019-06-08T05:29:58.388Z,22.60
2019-06-08T05:35:01.554Z,22.91
2019-06-08T05:40:05.286Z,22.66
2019-06-08T05:45:09.094Z,23.01
2019-06-08T05:50:12.592Z,22.91
2019-06-08T05:55:18.810Z,23.13
2019-06-08T06:00:22.392Z,23.66
2019-06-08T06:05:25.917Z,23.60
2019-06-08T06:10:30.248Z,23.82
2019-06-08T06:15:33.447Z,23.77
2019-06-08T06:20:36.701Z,23.69
2019-06-08T06:25:41.299Z,24.18
2019-06-08T06:30:46.561Z,24.10
2019-06-08T06:35:52.012Z,24.36
2019-06-08T06:40:54.536Z,24.38
2019-06-08T06:45:58.905Z,24.33
2019-06-08T06:51:02.650Z,24.67
2019-06-08T06:56:05.984Z,24.67
2019-06-08T07:01:09.181Z,24.60
2019-06-08T07:06:12.639Z,24.69
2019-06-08T07:11:15.634Z,25.01
2019-06-08T07:16:19.456Z,25.28
2019-06-08T07:21:23.061Z,25.27
2019-06-08T07:26:26.285Z,25.17
2019-06-08T07:31:29.432Z,25.42
2019-06-08T07:36:32.838Z,25.20
2019-06-08T07:41:36.018Z,25.37
2019-06-08T07:46:40.235Z,25.57
2019-06-08T07:51:57.656Z,25.96
2019-06-08T07:56:50.131Z,25.82
2019-06-08T08:01:56.171Z,25.86
2019-06-08T08:07:00.898Z,25.71
2019-06-08T08:12:04.257Z,25.87
2019-06-08T08:17:07.602Z,26.12
2019-06-08T08:22:22.043Z,26.18
2019-06-08T08:27:17.743Z,26.42
2019-06-08T08:32:20.310Z,26.43
2019-06-08T08:37:23.556Z,26.49
2019-06-08T08:42:27.051Z,26.89
2019-06-08T08:47:31.940Z,26.87
2019-06-08T08:52:38.059Z,27.34
2019-06-08T08:57:41.677Z,27.80
2019-06-08T09:02:45.806Z,28.01
2019-06-08T09:07:52.544Z,27.84
2019-06-08T09:13:01.709Z,28.29
2019-06-08T09:18:04.457Z,28.32
2019-06-08T09:23:15.656Z,28.17
2019-06-08T09:28:12.580Z,27.93
2019-06-08T09:33:18.604Z,28.96
2019-06-08T09:38:20.940Z,28.27
2019-06-08T09:43:24.393Z,27.91
2019-06-08T09:48:28.797Z,28.18
2019-06-08T09:53:37.665Z,28.34
2019-06-08T09:58:39.110Z,28.98
2019-06-08T10:03:42.509Z,27.84
2019-06-08T10:08:47.929Z,27.73
2019-06-08T10:13:50.617Z,27.98
2019-06-08T10:18:54.971Z,27.91
2019-06-08T10:24:01.039Z,28.51
2019-06-08T10:29:05.238Z,28.29
2019-06-08T10:34:11.080Z,28.74
2019-06-08T10:39:13.614Z,28.92
2019-06-08T10:44:18.271Z,29.32
2019-06-08T10:49:21.587Z,29.58
2019-06-08T10:54:24.729Z,29.17
2019-06-08T10:59:28.912Z,28.98
2019-06-08T11:04:32.450Z,29.37
2019-06-08T11:09:35.717Z,28.94
2019-06-08T11:14:40.745Z,28.40
2019-06-08T11:19:44.102Z,28.02
2019-06-08T11:24:48.536Z,28.01
2019-06-08T11:29:51.696Z,27.69
2019-06-08T11:34:54.688Z,27.66
2019-06-08T11:39:58.126Z,27.65
2019-06-08T11:45:04.439Z,28.36
2019-06-08T11:50:12.970Z,28.29
2019-06-08T11:55:14.704Z,29.03
2019-06-08T12:00:48.921Z,29.41
2019-06-08T12:05:52.286Z,28.82
2019-06-08T12:11:01.272Z,28.61
2019-06-08T12:16:01.201Z,28.27
2019-06-08T12:21:05.499Z,28.49
2019-06-08T12:26:10.125Z,29.20
2019-06-08T12:31:17.671Z,29.51
2019-06-08T12:36:20.552Z,29.68
2019-06-08T12:41:23.327Z,29.61
2019-06-08T12:46:27.997Z,29.42
2019-06-08T12:51:31.361Z,28.87
2019-06-08T12:56:37.731Z,28.73
2019-06-08T13:01:42.307Z,28.26
2019-06-08T13:06:45.396Z,28.22
2019-06-08T13:11:50.715Z,27.96
2019-06-08T13:16:53.542Z,27.75
2019-06-08T13:21:58.267Z,27.75
2019-06-08T13:27:01.624Z,27.61
2019-06-08T13:32:04.700Z,27.63
2019-06-08T13:37:08.445Z,28.30
2019-06-08T13:42:13.108Z,28.54
2019-06-08T13:47:18.621Z,28.74
2019-06-08T13:52:23.576Z,29.12
2019-06-08T13:57:26.733Z,29.10
2019-06-08T14:02:31.752Z,28.49
2019-06-08T14:07:37.887Z,28.14
2019-06-08T14:12:40.461Z,27.53
2019-06-08T14:17:43.641Z,27.08
2019-06-08T14:22:50.410Z,26.77
2019-06-08T14:27:52.314Z,26.57
2019-06-08T14:32:57.662Z,26.54
2019-06-08T14:38:01.283Z,26.57
2019-06-08T14:43:04.436Z,26.38
2019-06-08T14:48:07.612Z,26.19
2019-06-08T14:53:11.080Z,26.89
2019-06-08T14:58:14.651Z,27.09
2019-06-08T15:03:18.377Z,26.91
2019-06-08T15:08:23.634Z,26.87
2019-06-08T15:13:28.580Z,26.81
2019-06-08T15:18:31.932Z,26.55
2019-06-08T15:23:35.814Z,26.24
2019-06-08T15:28:39.018Z,26.05
2019-06-08T15:33:42.092Z,26.04
2019-06-08T15:38:47.844Z,26.41
2019-06-08T15:43:49.580Z,26.51
2019-06-08T15:48:52.665Z,26.03
2019-06-08T15:53:57.874Z,25.55
2019-06-08T15:59:00.953Z,25.29
2019-06-08T16:04:04.310Z,25.10
2019-06-08T16:09:08.727Z,25.04
2019-06-08T16:14:11.802Z,25.04
2019-06-08T16:19:14.937Z,24.87
2019-06-08T16:24:18.316Z,24.93
2019-06-08T16:29:21.412Z,24.89
2019-06-08T16:34:24.768Z,24.55
2019-06-08T16:39:28.640Z,24.49
2019-06-08T16:44:32.357Z,24.31
2019-06-08T16:49:35.996Z,24.21
2019-06-08T16:54:39.232Z,24.01
2019-06-08T16:59:42.638Z,23.91
2019-06-08T17:04:48.875Z,23.86
2019-06-08T17:09:51.548Z,23.75
2019-06-08T17:14:54.569Z,23.67
2019-06-08T17:19:57.624Z,23.69
2019-06-08T17:25:00.718Z,23.49
2019-06-08T17:30:08.386Z,23.44
2019-06-08T17:35:10.134Z,23.36
2019-06-08T17:40:13.714Z,23.11
2019-06-08T17:45:17.119Z,22.94
2019-06-08T17:50:20.302Z,22.88
2019-06-08T17:55:23.401Z,22.85
2019-06-08T18:00:26.609Z,22.89
2019-06-08T18:05:29.945Z,22.76
2019-06-08T18:10:33.785Z,22.51
2019-06-08T18:15:39.094Z,22.49
2019-06-08T18:20:42.474Z,22.35
2019-06-08T18:25:48.086Z,22.19
2019-06-08T18:30:51.496Z,22.10
2019-06-08T18:35:54.549Z,21.94
2019-06-08T18:40:57.586Z,21.91
2019-06-08T18:46:02.660Z,21.84
2019-06-08T18:51:08.331Z,21.77
2019-06-08T18:56:11.500Z,21.72
2019-06-08T19:01:14.524Z,21.66
2019-06-08T19:06:18.837Z,21.63
2019-06-08T19:11:22.557Z,21.66
2019-06-08T19:16:28.187Z,21.46
2019-06-08T19:21:30.779Z,21.41
2019-06-08T19:26:33.955Z,21.25
2019-06-08T19:31:39.003Z,21.16
2019-06-08T19:36:43.132Z,20.86
2019-06-08T19:41:50.429Z,20.87
2019-06-08T19:46:53.209Z,20.80
2019-06-08T19:51:58.054Z,20.70
2019-06-08T19:57:01.380Z,20.61
2019-06-08T20:02:04.486Z,20.62
2019-06-08T20:07:08.703Z,20.57
2019-06-08T20:12:12.116Z,20.55
2019-06-08T20:17:17.249Z,20.43
2019-06-08T20:22:20.176Z,20.44
2019-06-08T20:27:23.825Z,20.39
2019-06-08T20:32:28.193Z,20.30
2019-06-08T20:37:31.460Z,20.17
2019-06-08T20:42:34.729Z,20.03
2019-06-08T20:47:39.152Z,20.01
2019-06-08T20:52:42.455Z,20.00
2019-06-08T20:57:47.751Z,19.92
2019-06-08T21:02:51.971Z,19.91
2019-06-08T21:07:58.871Z,19.85
2019-06-08T21:13:00.858Z,19.84
2019-06-08T21:18:03.961Z,19.84
2019-06-08T21:23:08.168Z,19.73
2019-06-08T21:28:11.482Z,19.65
2019-06-08T21:33:14.560Z,19.62
2019-06-08T21:38:23.710Z,19.54
2019-06-08T21:43:22.626Z,19.36
2019-06-08T21:48:27.505Z,19.34
2019-06-08T21:53:30.764Z,19.29
2019-06-08T21:58:33.964Z,19.19
2019-06-08T22:03:38.073Z,19.07
2019-06-08T22:08:41.354Z,18.99
2019-06-08T22:13:44.477Z,18.96
2019-06-08T22:18:47.622Z,18.91
2019-06-08T22:23:51.835Z,18.83
2019-06-08T22:28:55.423Z,18.78
2019-06-08T22:34:00.777Z,18.63
2019-06-08T22:39:07.862Z,18.73
2019-06-08T22:44:10.314Z,18.73
2019-06-08T22:49:15.339Z,18.59
2019-06-08T22:54:18.371Z,18.33
2019-06-08T22:59:21.494Z,18.13
2019-06-08T23:04:24.566Z,18.14
2019-06-08T23:09:28.366Z,18.09
2019-06-08T23:14:31.819Z,18.17
2019-06-08T23:19:37.240Z,18.22
2019-06-08T23:24:39.914Z,18.14
2019-06-08T23:29:42.927Z,17.96
2019-06-08T23:34:47.813Z,17.93
2019-06-08T23:39:51.086Z,17.91
2019-06-08T23:44:54.568Z,17.86
2019-06-08T23:49:59.525Z,17.82
2019-06-08T23:55:03.792Z,17.65
